createdAt,value
2023-03-03T00:01:13.891Z,8.13
2023-03-03T00:03:44.967Z,8.27
2023-03-03T00:06:15.424Z,7.90
2023-03-03T00:08:43.704Z,9.23
2023-03-03T00:11:12.240Z,9.00
2023-03-03T00:13:48.211Z,8.97
2023-03-03T00:16:22.600Z,7.97
2023-03-03T00:18:51.186Z,7.40
2023-03-03T00:21:31.397Z,8.23
2023-03-03T00:24:22.793Z,8.00
2023-03-03T00:26:52.754Z,9.47
2023-03-03T00:29:49.699Z,8.77
2023-03-03T00:32:25.518Z,9.73
2023-03-03T00:34:54.665Z,9.50
2023-03-03T00:37:30.365Z,9.30
2023-03-03T00:40:17.420Z,8.53
2023-03-03T00:42:50.091Z,9.40
2023-03-03T00:45:46.532Z,8.87
2023-03-03T00:48:30.202Z,9.30
2023-03-03T00:50:59.933Z,10.07
2023-03-03T00:53:29.840Z,9.07
2023-03-03T00:55:58.478Z,9.17
2023-03-03T00:58:27.576Z,10.33
2023-03-03T01:01:00.310Z,10.07
2023-03-03T01:03:28.808Z,10.47
2023-03-03T01:05:56.859Z,9.53
2023-03-03T01:08:25.764Z,10.10
2023-03-03T01:10:55.959Z,9.73
2023-03-03T01:13:29.845Z,9.80
2023-03-03T01:16:00.091Z,10.33
2023-03-03T01:18:28.748Z,9.93
2023-03-03T01:20:56.844Z,10.77
2023-03-03T01:23:25.323Z,10.67
2023-03-03T01:25:53.613Z,10.10
2023-03-03T01:28:21.748Z,9.93
2023-03-03T01:30:51.104Z,10.90
2023-03-03T01:33:20.971Z,9.83
2023-03-03T01:35:50.138Z,10.17
2023-03-03T01:38:18.238Z,11.50
2023-03-03T01:40:53.707Z,10.50
2023-03-03T01:43:22.013Z,9.93
2023-03-03T01:46:31.296Z,11.67
2023-03-03T01:49:05.019Z,10.10
2023-03-03T01:51:37.483Z,11.00
2023-03-03T01:54:11.325Z,10.73
2023-03-03T01:56:41.244Z,10.60
2023-03-03T01:59:15.249Z,11.30
2023-03-03T02:01:43.970Z,11.57
2023-03-03T02:04:15.297Z,11.37
2023-03-03T02:06:48.978Z,11.40
2023-03-03T02:09:27.733Z,11.00
2023-03-03T02:12:00.486Z,12.67
2023-03-03T02:14:30.626Z,11.40
2023-03-03T02:16:59.382Z,11.33
2023-03-03T02:19:36.747Z,11.17
2023-03-03T02:22:05.034Z,12.33
2023-03-03T02:24:40.071Z,11.53
2023-03-03T02:27:09.798Z,11.33
2023-03-03T02:29:38.159Z,12.70
2023-03-03T02:32:06.551Z,12.50
2023-03-03T02:34:46.633Z,12.77
2023-03-03T02:37:14.574Z,12.40
2023-03-03T02:39:45.642Z,12.33
2023-03-03T02:42:21.063Z,12.87
2023-03-03T02:44:49.200Z,13.40
2023-03-03T02:47:17.180Z,13.27
2023-03-03T02:49:45.320Z,13.20
2023-03-03T02:52:14.949Z,13.17
2023-03-03T02:54:46.012Z,15.10
2023-03-03T02:57:15.476Z,14.50
2023-03-03T02:59:43.553Z,14.17
2023-03-03T03:02:12.075Z,14.57
2023-03-03T03:04:40.267Z,14.57
2023-03-03T03:07:08.456Z,16.33
2023-03-03T03:09:36.510Z,16.90
2023-03-03T03:12:05.340Z,14.93
2023-03-03T03:14:35.270Z,16.40
2023-03-03T03:17:03.323Z,15.30
2023-03-03T03:19:31.498Z,16.23
2023-03-03T03:21:59.515Z,16.87
2023-03-03T03:24:27.540Z,17.80
2023-03-03T03:26:55.733Z,17.40
2023-03-03T03:29:23.685Z,17.90
2023-03-03T03:31:53.084Z,17.03
2023-03-03T03:34:21.422Z,16.80
2023-03-03T03:36:49.601Z,20.27
2023-03-03T03:39:20.551Z,19.73
2023-03-03T03:41:48.682Z,19.87
2023-03-03T03:44:17.143Z,20.30
2023-03-03T03:46:45.142Z,20.57
2023-03-03T03:49:14.900Z,18.87
2023-03-03T03:51:43.141Z,20.40
2023-03-03T03:54:11.153Z,20.67
2023-03-03T03:56:39.490Z,21.77
2023-03-03T03:59:10.570Z,20.60
2023-03-03T04:01:38.890Z,21.47
2023-03-03T04:04:09.380Z,22.23
2023-03-03T04:06:38.949Z,20.63
2023-03-03T04:09:06.952Z,21.07
2023-03-03T04:11:35.019Z,19.10
2023-03-03T04:14:03.179Z,20.47
2023-03-03T04:16:32.996Z,20.00
2023-03-03T04:19:03.159Z,19.97
2023-03-03T04:21:31.450Z,20.73
2023-03-03T04:24:00.898Z,19.93
2023-03-03T04:26:28.925Z,20.07
2023-03-03T04:28:57.073Z,21.53
2023-03-03T04:31:25.633Z,20.83
2023-03-03T04:33:54.503Z,20.63
2023-03-03T04:36:22.847Z,18.83
2023-03-03T04:38:51.214Z,19.93
2023-03-03T04:41:20.836Z,20.50
2023-03-03T04:43:49.673Z,18.80
2023-03-03T04:46:17.688Z,19.97
2023-03-03T04:48:45.866Z,19.27
2023-03-03T04:51:16.746Z,20.37
2023-03-03T04:53:44.841Z,19.60
2023-03-03T04:56:13.197Z,20.30
2023-03-03T04:58:42.852Z,20.93
2023-03-03T05:01:14.431Z,19.37
2023-03-03T05:03:43.342Z,19.80
2023-03-03T05:06:11.556Z,22.37
2023-03-03T05:08:40.473Z,20.83
2023-03-03T05:11:08.713Z,20.73
2023-03-03T05:13:36.823Z,21.73
2023-03-03T05:16:07.075Z,21.30
2023-03-03T05:18:35.129Z,21.07
2023-03-03T05:21:03.198Z,21.20
2023-03-03T05:23:31.571Z,21.47
2023-03-03T05:25:59.576Z,20.80
2023-03-03T05:28:27.943Z,21.27
2023-03-03T05:30:56.037Z,21.83
2023-03-03T05:33:25.943Z,21.53
2023-03-03T05:35:55.902Z,22.27
2023-03-03T05:38:27.074Z,21.33
2023-03-03T05:40:55.417Z,21.23
2023-03-03T05:43:23.542Z,22.40
2023-03-03T05:45:56.377Z,21.47
2023-03-03T05:48:31.304Z,21.73
2023-03-03T05:51:00.622Z,22.07
2023-03-03T05:53:29.327Z,22.60
2023-03-03T05:55:57.673Z,22.77
2023-03-03T05:58:25.715Z,22.57
2023-03-03T06:00:53.932Z,25.60
2023-03-03T06:03:27.009Z,24.83
2023-03-03T06:05:55.476Z,24.97
2023-03-03T06:08:24.062Z,23.60
2023-03-03T06:10:52.669Z,25.87
2023-03-03T06:13:20.782Z,25.60
2023-03-03T06:15:49.022Z,24.67
2023-03-03T06:18:17.014Z,24.77
2023-03-03T06:20:46.520Z,24.60
2023-03-03T06:23:14.582Z,24.23
2023-03-03T06:25:43.018Z,25.40
2023-03-03T06:28:11.227Z,25.83
2023-03-03T06:30:40.249Z,25.47
2023-03-03T06:33:09.044Z,24.20
2023-03-03T06:35:38.194Z,23.20
2023-03-03T06:38:07.610Z,24.00
2023-03-03T06:40:35.560Z,22.97
2023-03-03T06:43:04.662Z,23.77
2023-03-03T06:45:32.725Z,25.07
2023-03-03T06:48:09.368Z,24.67
2023-03-03T06:50:39.467Z,23.57
2023-03-03T06:53:13.965Z,24.73
2023-03-03T06:55:44.682Z,25.40
2023-03-03T06:58:16.064Z,23.67
2023-03-03T07:00:46.518Z,23.57
2023-03-03T07:03:17.048Z,21.30
2023-03-03T07:05:46.199Z,22.13
2023-03-03T07:08:18.084Z,21.30
2023-03-03T07:10:48.774Z,20.47
2023-03-03T07:13:22.651Z,20.90
2023-03-03T07:15:52.215Z,22.53
2023-03-03T07:18:36.482Z,25.27
2023-03-03T07:21:15.714Z,25.13
2023-03-03T07:23:47.170Z,23.40
2023-03-03T07:26:17.483Z,24.47
2023-03-03T07:28:50.001Z,22.50
2023-03-03T07:31:31.581Z,24.97
2023-03-03T07:34:01.394Z,26.50
2023-03-03T07:36:31.953Z,24.97
2023-03-03T07:39:05.508Z,25.33
2023-03-03T07:41:36.616Z,24.07
2023-03-03T07:44:28.943Z,24.07
2023-03-03T07:46:57.510Z,21.97
2023-03-03T07:49:32.704Z,21.83
2023-03-03T07:52:03.986Z,23.20
2023-03-03T07:54:39.303Z,25.70
2023-03-03T07:57:23.814Z,29.70
2023-03-03T07:59:54.148Z,30.80
2023-03-03T08:02:38.610Z,27.73
2023-03-03T08:05:26.578Z,29.63
2023-03-03T08:07:59.103Z,28.27
2023-03-03T08:10:37.179Z,30.23
2023-03-03T08:13:18.244Z,30.23
2023-03-03T08:15:48.037Z,30.17
2023-03-03T08:18:22.815Z,29.17
2023-03-03T08:20:53.194Z,28.37
2023-03-03T08:23:22.948Z,31.63
2023-03-03T08:25:55.132Z,31.97
2023-03-03T08:28:23.824Z,29.97
2023-03-03T08:31:02.677Z,30.67
2023-03-03T08:33:37.448Z,29.27
2023-03-03T08:36:08.782Z,31.33
2023-03-03T08:38:37.590Z,31.47
2023-03-03T08:41:07.494Z,31.40
2023-03-03T08:43:36.229Z,29.07
2023-03-03T08:46:07.201Z,27.03
2023-03-03T08:48:36.140Z,27.77
2023-03-03T08:51:04.571Z,28.43
2023-03-03T08:53:35.070Z,27.53
2023-03-03T08:56:03.092Z,28.73
2023-03-03T08:58:35.973Z,27.60
2023-03-03T09:01:05.894Z,29.60
2023-03-03T09:03:35.076Z,28.30
2023-03-03T09:06:03.474Z,28.87
2023-03-03T09:08:31.702Z,27.57
2023-03-03T09:11:00.458Z,29.30
2023-03-03T09:13:35.843Z,27.13
2023-03-03T09:16:14.564Z,27.10
2023-03-03T09:18:44.250Z,26.23
2023-03-03T09:21:23.070Z,26.70
2023-03-03T09:23:58.007Z,25.93
2023-03-03T09:26:31.864Z,26.73
2023-03-03T09:29:24.840Z,25.27
2023-03-03T09:31:55.300Z,24.83
2023-03-03T09:34:28.867Z,26.07
2023-03-03T09:37:00.000Z,25.97
2023-03-03T09:39:31.161Z,25.03
2023-03-03T09:42:23.951Z,24.93
2023-03-03T09:45:11.949Z,26.40
2023-03-03T09:47:51.301Z,26.60
2023-03-03T09:50:35.883Z,26.33
2023-03-03T09:53:19.415Z,25.27
2023-03-03T09:55:55.493Z,26.77
2023-03-03T09:58:45.745Z,25.17
2023-03-03T10:01:50.590Z,26.47
2023-03-03T10:04:48.359Z,26.87
2023-03-03T10:07:40.533Z,28.03
2023-03-03T10:10:22.838Z,26.20
2023-03-03T10:13:04.370Z,26.77
2023-03-03T10:15:41.243Z,25.67
2023-03-03T10:18:19.254Z,27.30
2023-03-03T10:21:00.635Z,26.60
2023-03-03T10:23:58.318Z,24.50
2023-03-03T10:27:09.954Z,24.40
2023-03-03T10:29:51.863Z,24.67
2023-03-03T10:32:45.926Z,23.97
2023-03-03T10:35:24.884Z,23.13
2023-03-03T10:38:16.936Z,23.70
2023-03-03T10:40:52.547Z,24.50
2023-03-03T10:43:34.622Z,23.43
2023-03-03T10:46:23.476Z,25.40
2023-03-03T10:49:17.151Z,23.37
2023-03-03T10:51:56.609Z,20.70
2023-03-03T10:54:31.381Z,21.93
2023-03-03T10:57:08.801Z,21.47
2023-03-03T10:59:52.632Z,20.50
2023-03-03T11:02:28.020Z,20.87
2023-03-03T11:05:19.449Z,21.40
2023-03-03T11:07:52.252Z,20.87
2023-03-03T11:10:28.972Z,21.30
2023-03-03T11:13:27.730Z,21.63
2023-03-03T11:16:07.862Z,18.97
2023-03-03T11:18:47.559Z,19.57
2023-03-03T11:21:24.095Z,18.43
2023-03-03T11:24:03.183Z,17.80
2023-03-03T11:26:51.486Z,17.23
2023-03-03T11:29:33.369Z,17.57
2023-03-03T11:32:12.550Z,17.37
2023-03-03T11:34:54.253Z,17.70
2023-03-03T11:37:27.657Z,18.93
2023-03-03T11:39:59.247Z,17.17
2023-03-03T11:42:36.014Z,18.17
2023-03-03T11:45:15.321Z,19.03
2023-03-03T11:47:50.880Z,17.57
2023-03-03T11:50:26.793Z,16.70
2023-03-03T11:53:04.261Z,17.07
2023-03-03T11:55:37.437Z,17.97
2023-03-03T11:58:13.972Z,18.77
2023-03-03T12:00:47.401Z,15.93
2023-03-03T12:03:30.662Z,17.33
2023-03-03T12:06:12.205Z,16.50
2023-03-03T12:09:04.524Z,17.00
2023-03-03T12:11:39.746Z,16.13
2023-03-03T12:14:14.422Z,15.27
2023-03-03T12:16:53.978Z,16.27
2023-03-03T12:19:43.527Z,15.33
2023-03-03T12:22:24.026Z,15.50
2023-03-03T12:25:04.900Z,16.23
2023-03-03T12:27:41.168Z,15.43
2023-03-03T12:30:19.161Z,15.37
2023-03-03T12:33:12.024Z,15.70
2023-03-03T12:35:50.702Z,15.30
2023-03-03T12:38:30.000Z,15.80
2023-03-03T12:41:08.620Z,15.57
2023-03-03T12:43:48.195Z,15.37
2023-03-03T12:46:28.491Z,13.77
2023-03-03T12:48:58.732Z,15.23
2023-03-03T12:51:37.569Z,16.07
2023-03-03T12:54:28.144Z,15.57
2023-03-03T12:56:59.733Z,15.37
2023-03-03T12:59:41.138Z,17.57
2023-03-03T13:02:42.806Z,15.27
2023-03-03T13:05:21.891Z,14.43
2023-03-03T13:07:59.690Z,14.47
2023-03-03T13:10:36.988Z,14.50
2023-03-03T13:13:09.987Z,14.43
2023-03-03T13:15:51.838Z,13.53
2023-03-03T13:18:34.120Z,13.60
2023-03-03T13:21:09.384Z,13.60
2023-03-03T13:23:47.654Z,13.20
2023-03-03T13:26:21.495Z,13.47
2023-03-03T13:29:00.649Z,13.83
2023-03-03T13:31:35.320Z,13.80
2023-03-03T13:34:03.853Z,12.73
2023-03-03T13:36:38.958Z,14.77
2023-03-03T13:39:18.968Z,14.23
2023-03-03T13:41:50.694Z,13.13
2023-03-03T13:44:23.825Z,14.47
2023-03-03T13:47:03.989Z,14.03
2023-03-03T13:49:48.730Z,14.63
2023-03-03T13:52:22.479Z,13.90
2023-03-03T13:55:13.261Z,13.30
2023-03-03T13:57:51.659Z,12.80
2023-03-03T14:00:32.297Z,13.57
2023-03-03T14:03:29.123Z,12.20
2023-03-03T14:06:02.663Z,12.97
2023-03-03T14:08:49.519Z,13.43
2023-03-03T14:11:23.392Z,11.57
2023-03-03T14:14:00.826Z,12.37
2023-03-03T14:16:42.697Z,11.90
2023-03-03T14:19:18.190Z,12.17
2023-03-03T14:21:54.391Z,11.43
2023-03-03T14:24:26.413Z,11.00
2023-03-03T14:26:56.769Z,12.13
2023-03-03T14:29:32.904Z,10.83
2023-03-03T14:32:02.540Z,9.93
2023-03-03T14:34:38.192Z,9.60
2023-03-03T14:37:27.787Z,8.97
2023-03-03T14:40:15.944Z,8.20
2023-03-03T14:42:49.862Z,7.47
2023-03-03T14:45:30.807Z,7.83
2023-03-03T14:47:59.772Z,7.40
2023-03-03T14:50:37.935Z,6.90
2023-03-03T14:53:21.448Z,7.00
2023-03-03T14:55:52.617Z,6.93
2023-03-03T14:58:32.804Z,6.83
2023-03-03T15:01:17.490Z,6.97
2023-03-03T15:03:52.391Z,6.40
2023-03-03T15:06:36.140Z,6.60
2023-03-03T15:09:29.706Z,6.03
2023-03-03T15:12:01.644Z,6.20
2023-03-03T15:14:36.826Z,6.37
2023-03-03T15:17:26.128Z,5.97
2023-03-03T15:20:22.555Z,5.93
2023-03-03T15:22:53.364Z,5.03
2023-03-03T15:25:42.835Z,5.47
2023-03-03T15:28:40.768Z,5.37
2023-03-03T15:31:21.948Z,5.10
2023-03-03T15:34:02.834Z,6.17
2023-03-03T15:36:37.260Z,4.90
2023-03-03T15:39:17.607Z,6.13
2023-03-03T15:41:52.919Z,5.00
2023-03-03T15:44:29.634Z,5.10
2023-03-03T15:47:21.657Z,4.20
2023-03-03T15:50:13.309Z,4.17
2023-03-03T15:52:54.138Z,4.90
2023-03-03T15:55:33.588Z,4.17
2023-03-03T15:58:18.832Z,4.27
2023-03-03T16:01:00.429Z,3.50
2023-03-03T16:03:36.403Z,4.03
2023-03-03T16:06:10.132Z,4.10
2023-03-03T16:08:47.668Z,3.53
2023-03-03T16:11:23.014Z,3.70
2023-03-03T16:14:14.668Z,3.50
2023-03-03T16:16:53.243Z,3.67
2023-03-03T16:19:39.565Z,3.30
2023-03-03T16:22:31.270Z,3.10
2023-03-03T16:25:19.557Z,3.23
2023-03-03T16:27:53.545Z,3.30
2023-03-03T16:30:33.116Z,3.20
2023-03-03T16:33:19.134Z,3.27
2023-03-03T16:35:54.564Z,6.47
2023-03-03T16:38:29.055Z,7.47
2023-03-03T16:40:59.517Z,8.23
2023-03-03T16:43:40.067Z,7.50
2023-03-03T16:46:21.581Z,7.33
2023-03-03T16:48:59.003Z,9.00
2023-03-03T16:51:37.176Z,7.97
2023-03-03T16:54:10.965Z,7.70
2023-03-03T16:56:44.735Z,8.67
2023-03-03T16:59:33.550Z,8.27
2023-03-03T17:02:15.878Z,7.07
2023-03-03T17:04:49.718Z,3.93
2023-03-03T17:07:35.941Z,4.00
2023-03-03T17:10:17.716Z,5.00
2023-03-03T17:13:00.648Z,4.23
2023-03-03T17:15:46.610Z,4.07
2023-03-03T17:18:21.529Z,3.60
2023-03-03T17:20:52.723Z,3.50
2023-03-03T17:23:40.474Z,4.03
2023-03-03T17:26:22.563Z,3.10
2023-03-03T17:29:01.284Z,3.47
2023-03-03T17:31:38.571Z,2.67
2023-03-03T17:34:33.825Z,2.80
2023-03-03T17:37:17.578Z,2.83
2023-03-03T17:40:21.603Z,2.93
2023-03-03T17:42:58.820Z,3.27
2023-03-03T17:45:29.589Z,3.10
2023-03-03T17:48:26.174Z,4.80
2023-03-03T17:51:11.656Z,4.47
2023-03-03T17:54:03.458Z,3.40
2023-03-03T17:56:41.251Z,4.17
2023-03-03T17:59:31.922Z,3.83
2023-03-03T18:02:31.330Z,4.40
2023-03-03T18:05:25.200Z,4.57
2023-03-03T18:08:07.376Z,7.30
2023-03-03T18:11:01.272Z,5.73
2023-03-03T18:13:59.780Z,7.03
2023-03-03T18:16:41.102Z,8.77
2023-03-03T18:19:29.254Z,6.10
2023-03-03T18:22:03.883Z,8.97
2023-03-03T18:24:42.564Z,12.87
2023-03-03T18:27:34.559Z,12.27
2023-03-03T18:30:39.161Z,14.97
2023-03-03T18:33:12.763Z,15.03
2023-03-03T18:35:43.972Z,15.00
2023-03-03T18:38:40.357Z,11.47
2023-03-03T18:41:13.184Z,15.30
2023-03-03T18:43:59.354Z,16.07
2023-03-03T18:46:54.637Z,15.37
2023-03-03T18:50:04.340Z,13.70
2023-03-03T18:52:33.817Z,13.53
2023-03-03T18:55:27.205Z,14.43
2023-03-03T18:58:29.345Z,15.20
2023-03-03T19:01:01.780Z,16.80
2023-03-03T19:03:34.525Z,14.37
2023-03-03T19:06:03.186Z,13.80
2023-03-03T19:08:44.962Z,13.50
2023-03-03T19:11:38.815Z,13.23
2023-03-03T19:14:35.256Z,13.87
2023-03-03T19:17:36.416Z,13.53
2023-03-03T19:20:13.187Z,14.70
2023-03-03T19:22:46.506Z,15.97
2023-03-03T19:25:23.331Z,14.73
2023-03-03T19:28:04.213Z,15.47
2023-03-03T19:30:47.433Z,16.67
2023-03-03T19:33:54.550Z,18.20
2023-03-03T19:36:48.377Z,20.33
2023-03-03T19:39:57.197Z,20.40
2023-03-03T19:42:40.060Z,20.17
2023-03-03T19:45:24.542Z,23.77
2023-03-03T19:48:02.777Z,22.90
2023-03-03T19:50:40.626Z,23.80
2023-03-03T19:53:20.043Z,23.53
2023-03-03T19:56:06.748Z,24.97
2023-03-03T19:58:48.085Z,22.70
2023-03-03T20:01:24.404Z,26.63
2023-03-03T20:04:11.493Z,24.60
2023-03-03T20:06:52.035Z,25.80
2023-03-03T20:09:38.037Z,26.50
2023-03-03T20:12:24.107Z,27.07
2023-03-03T20:14:57.987Z,27.07
2023-03-03T20:17:42.015Z,29.03
2023-03-03T20:20:42.518Z,26.57
2023-03-03T20:23:23.612Z,28.13
2023-03-03T20:25:59.229Z,27.27
2023-03-03T20:28:49.523Z,27.73
2023-03-03T20:31:23.810Z,29.07
2023-03-03T20:34:01.286Z,28.60
2023-03-03T20:36:38.768Z,30.70
2023-03-03T20:39:11.349Z,29.77
2023-03-03T20:41:56.276Z,29.37
2023-03-03T20:44:35.894Z,31.27
2023-03-03T20:47:12.048Z,31.63
2023-03-03T20:50:10.224Z,30.83
2023-03-03T20:52:49.411Z,30.00
2023-03-03T20:55:25.623Z,31.57
2023-03-03T20:58:01.481Z,28.97
2023-03-03T21:00:35.549Z,29.53
2023-03-03T21:03:11.927Z,28.77
2023-03-03T21:05:56.991Z,31.80
2023-03-03T21:08:42.746Z,31.77
2023-03-03T21:11:11.440Z,30.10
2023-03-03T21:13:43.194Z,31.27
2023-03-03T21:16:17.224Z,31.97
2023-03-03T21:18:58.244Z,31.37
2023-03-03T21:21:27.572Z,31.93
2023-03-03T21:23:55.565Z,33.37
2023-03-03T21:26:47.563Z,30.67
2023-03-03T21:29:34.586Z,33.57
2023-03-03T21:32:05.252Z,33.30
2023-03-03T21:34:34.941Z,31.30
2023-03-03T21:37:04.491Z,32.33
2023-03-03T21:39:38.205Z,33.50
2023-03-03T21:42:08.316Z,37.27
2023-03-03T21:44:40.524Z,39.73
2023-03-03T21:47:10.127Z,41.50
2023-03-03T21:49:41.598Z,49.60
2023-03-03T21:52:09.802Z,38.57
2023-03-03T21:54:37.767Z,36.20
2023-03-03T21:57:05.754Z,33.60
2023-03-03T21:59:33.771Z,40.47
2023-03-03T22:02:03.488Z,38.53
2023-03-03T22:04:31.536Z,37.20
2023-03-03T22:06:59.676Z,38.57
2023-03-03T22:09:27.834Z,36.40
2023-03-03T22:11:55.955Z,37.97
2023-03-03T22:14:24.152Z,35.70
2023-03-03T22:16:52.404Z,37.80
2023-03-03T22:19:21.894Z,38.17
2023-03-03T22:21:50.635Z,40.10
2023-03-03T22:24:19.589Z,41.53
2023-03-03T22:26:47.556Z,40.50
2023-03-03T22:29:16.840Z,39.90
2023-03-03T22:31:45.161Z,36.93
2023-03-03T22:34:13.265Z,36.67
2023-03-03T22:36:42.929Z,37.57
2023-03-03T22:39:10.880Z,37.43
2023-03-03T22:41:39.269Z,38.23
2023-03-03T22:44:07.196Z,37.50
2023-03-03T22:46:35.315Z,38.63
2023-03-03T22:49:03.731Z,38.33
2023-03-03T22:51:31.755Z,39.33
2023-03-03T22:54:01.162Z,39.20
2023-03-03T22:56:29.719Z,38.17
2023-03-03T22:58:57.790Z,40.47
2023-03-03T23:01:25.900Z,39.90
2023-03-03T23:03:53.907Z,39.43
2023-03-03T23:06:21.991Z,41.17
2023-03-03T23:08:49.932Z,40.27
2023-03-03T23:11:19.376Z,41.17
2023-03-03T23:13:47.319Z,39.07
2023-03-03T23:16:15.314Z,43.27
2023-03-03T23:18:43.381Z,41.47
2023-03-03T23:21:11.610Z,44.87
2023-03-03T23:23:39.593Z,49.23
2023-03-03T23:26:07.693Z,54.60
2023-03-03T23:28:37.173Z,46.20
2023-03-03T23:31:05.456Z,54.60
2023-03-03T23:33:35.336Z,39.37
2023-03-03T23:36:03.528Z,42.97
2023-03-03T23:38:31.586Z,42.30
2023-03-03T23:40:59.930Z,51.73
2023-03-03T23:43:28.000Z,44.57
2023-03-03T23:45:57.541Z,45.07
2023-03-03T23:48:25.626Z,42.43
2023-03-03T23:50:53.835Z,41.70
2023-03-03T23:53:21.832Z,43.37
2023-03-03T23:55:49.767Z,41.30
2023-03-03T23:58:17.662Z,40.60
